»·PEaware :: N738BS KGEG-KGEG

N738BS :: KGEG-KGEG

FLIGHT INFORMATION

Flight Status: Arrived
Operator: Privately registered:
United States
More flights under this callsign
Pilot: Northwest Flight Service (22302)
Aircraft: CESSNA 172 SKYHAWK
(C172)
More flights by this aircraft type
Origin: KGEG Spokane Intl
United States
Destination: KGEG Spokane Intl
United States
More flights between these airports :: More routes between these airports
Route: LUCEV
File this flight plan on PilotEdge
Remarks: +CW / ILS 21 X 2
Altitude:
(Current/Filed)
6,000ft
Speed:
(Current/Filed)
110kts
Departed: 30-Nov-19 11:53 AM
Arrived: 30-Nov-19 12:16 PM
Distance/Time
Traveled:
9nm/0:23
Distance/Time
To Go:
Arrived

Flight Plot

Page will automatically refresh every two minutes.


Map Options




Map Legend


Flown Route
Filed Route
Departure Airport
Arrival Airport
Navaid (VOR, NDB)
Fix

Horizontal Profiles

Position Reports

Time Latitude Longitude Heading Altitude Ground
Speed
30-Nov-19 11:30 47.618556 -117.526005 270 2378ft 0kts
30-Nov-19 11:31 47.618556 -117.526005 270 2378ft 0kts
30-Nov-19 11:32 47.618556 -117.526005 270 2378ft 0kts
30-Nov-19 11:33 47.618556 -117.526005 270 2378ft 0kts
30-Nov-19 11:34 47.618556 -117.526005 270 2378ft 0kts
30-Nov-19 11:35 47.618556 -117.526005 270 2378ft 0kts
30-Nov-19 11:36 47.618556 -117.526005 270 2378ft 0kts
30-Nov-19 11:37 47.618556 -117.526005 270 2378ft 0kts
30-Nov-19 11:38 47.618556 -117.526005 270 2378ft 0kts
30-Nov-19 11:39 47.618556 -117.526005 270 2378ft 0kts
30-Nov-19 11:40 47.618556 -117.526005 270 2378ft 0kts
30-Nov-19 11:41 47.618556 -117.526005 270 2378ft 0kts
30-Nov-19 11:42 47.618556 -117.526005 270 2378ft 0kts
30-Nov-19 11:43 47.618556 -117.526005 270 2378ft 0kts
30-Nov-19 11:44 47.618556 -117.526005 270 2378ft 0kts
30-Nov-19 11:45 47.618556 -117.526005 270 2378ft 0kts
30-Nov-19 11:46 47.618473 -117.528699 254 2378ft 12kts
30-Nov-19 11:47 47.620472 -117.530684 17 2378ft 28kts
30-Nov-19 11:48 47.627966 -117.519665 46 2378ft 37kts
30-Nov-19 11:49 47.630306 -117.517135 318 2378ft 0kts
30-Nov-19 11:50 47.630306 -117.517135 318 2378ft 0kts
30-Nov-19 11:51 47.630306 -117.517135 318 2378ft 0kts
30-Nov-19 11:52 47.627581 -117.523673 225 2397ft 73kts
30-Nov-19 11:53 47.611692 -117.544767 217 3339ft 74kts
30-Nov-19 11:54 47.595734 -117.562939 218 4238ft 73kts
30-Nov-19 11:55 47.580809 -117.582663 222 5083ft 72kts
30-Nov-19 11:56 47.566621 -117.586429 85 5868ft 70kts
30-Nov-19 11:57 47.572281 -117.550088 80 6031ft 107kts
30-Nov-19 11:58 47.581131 -117.507450 48 6020ft 109kts
30-Nov-19 11:59 47.600147 -117.472380 50 6045ft 110kts
30-Nov-19 12:00 47.619134 -117.437450 51 6046ft 111kts
30-Nov-19 12:01 47.636838 -117.404928 50 6055ft 112kts
30-Nov-19 12:02 47.655076 -117.372323 49 6047ft 114kts
30-Nov-19 12:03 47.674175 -117.336532 52 5846ft 100kts
30-Nov-19 12:04 47.689075 -117.304525 56 5042ft 104kts
30-Nov-19 12:05 47.711016 -117.301368 323 4416ft 90kts
30-Nov-19 12:06 47.728283 -117.322506 300 3934ft 81kts
30-Nov-19 12:08 47.721235 -117.350365 236 4158ft 78kts
30-Nov-19 12:09 47.712846 -117.373811 243 4245ft 81kts
30-Nov-19 12:10 47.705619 -117.397486 245 4066ft 80kts
30-Nov-19 12:11 47.695137 -117.421120 223 3861ft 86kts
30-Nov-19 12:12 47.680598 -117.442939 226 3805ft 74kts
30-Nov-19 12:13 47.667238 -117.463596 223 3440ft 77kts
30-Nov-19 12:14 47.653822 -117.483758 226 3063ft 78kts
30-Nov-19 12:15 47.639894 -117.505403 229 2643ft 73kts
30-Nov-19 12:16 47.628403 -117.522556 227 2378ft 25kts
30-Nov-19 12:17 47.628252 -117.522790 222 2378ft 0kts
30-Nov-19 12:18 47.620091 -117.534694 224 2604ft 87kts
30-Nov-19 12:19 47.603002 -117.557221 216 3608ft 79kts
30-Nov-19 12:20 47.585815 -117.567485 116 4532ft 74kts
30-Nov-19 12:21 47.590613 -117.537535 70 5403ft 71kts
30-Nov-19 12:22 47.597234 -117.509510 74 6089ft 78kts
30-Nov-19 12:23 47.605902 -117.470185 75 6085ft 118kts
30-Nov-19 12:24 47.613431 -117.424120 71 6004ft 124kts
30-Nov-19 12:25 47.626996 -117.387570 54 6134ft 92kts
30-Nov-19 12:26 47.640436 -117.355778 66 5847ft 94kts
30-Nov-19 12:27 47.650268 -117.319877 38 5273ft 96kts
30-Nov-19 12:27 47.670565 -117.311050 14 5058ft 98kts
30-Nov-19 12:29 47.700098 -117.297770 358 4317ft 106kts
30-Nov-19 12:29 47.716421 -117.317954 312 4133ft 82kts
30-Nov-19 12:30 47.709049 -117.341220 240 4011ft 82kts

Navigation Log

Ident Type
Flight plan parsing failed, navigation log unavailable